Time;durP1;ratioP1;P1;durP2;ratioP2;P2;SDS_P1;SDS_P2;PMS_P1;PMS_P2;Temp;Humidity;BMP_temperature;BMP_pressure;BME280_temperature;BME280_humidity;BME280_pressure;Samples;Min_cycle;Max_cycle;Signal;HPM_P1;HPM_P2
2021/06/09 00:00:27;;;;;;;11.55;9.68;;;;;;;;;;4430551;32;20138;-75
2021/06/09 00:02:53;;;;;;;12.50;9.63;;;;;;;;;;4419462;32;20158;-75
2021/06/09 00:05:18;;;;;;;16.37;11.95;;;;;;;;;;4423398;32;20179;-75
2021/06/09 00:07:43;;;;;;;19.25;11.30;;;;;;;;;;4416573;32;20217;-75
2021/06/09 00:10:08;;;;;;;14.93;11.82;;;;;;;;;;4437344;32;20578;-75
2021/06/09 00:12:34;;;;;;;14.45;10.60;;;;;;;;;;4408376;32;20188;-75
2021/06/09 00:14:59;;;;;;;14.82;11.45;;;;;;;;;;4421862;32;20133;-75
2021/06/09 00:17:25;;;;;;;13.68;10.15;;;;;;;;;;4417610;32;20161;-74
2021/06/09 00:19:50;;;;;;;13.62;10.27;;;;;;;;;;4407867;32;20217;-75
2021/06/09 00:22:15;;;;;;;15.02;11.68;;;;;;;;;;4427294;32;20145;-74
2021/06/09 00:24:41;;;;;;;14.85;10.90;;;;;;;;;;4409987;32;20264;-73
2021/06/09 00:27:06;;;;;;;14.70;10.68;;;;;;;;;;4421880;32;20726;-74
2021/06/09 00:29:31;;;;;;;17.37;13.60;;;;;;;;;;4407778;32;20165;-75
2021/06/09 00:31:57;;;;;;;16.77;12.50;;;;;;;;;;4407995;32;20196;-74
2021/06/09 00:34:22;;;;;;;14.05;10.60;;;;;;;;;;4421829;32;20650;-74
2021/06/09 00:36:47;;;;;;;14.73;11.40;;;;;;;;;;4429223;32;20236;-74
2021/06/09 00:39:12;;;;;;;17.73;12.97;;;;;;;;;;4437408;32;20255;-74
2021/06/09 00:41:37;;;;;;;14.32;11.80;;;;;;;;;;4422420;32;20612;-75
2021/06/09 00:44:03;;;;;;;15.73;11.73;;;;;;;;;;4436819;32;20133;-74
2021/06/09 00:46:33;;;;;;;14.02;11.77;;;;;;;;;;4421966;32;20235;-74
2021/06/09 00:48:59;;;;;;;18.92;13.07;;;;;;;;;;4421381;32;20220;-74
2021/06/09 00:51:24;;;;;;;15.88;11.68;;;;;;;;;;4423281;32;20138;-74
2021/06/09 00:53:55;;;;;;;16.90;12.98;;;;;;;;;;4432519;32;20167;-74
2021/06/09 00:56:21;;;;;;;15.00;12.52;;;;;;;;;;4408315;32;20209;-74
2021/06/09 00:58:48;;;;;;;17.15;13.60;;;;;;;;;;4408692;32;20217;-74
2021/06/09 01:01:14;;;;;;;14.10;11.60;;;;;;;;;;4409245;32;20571;-74
2021/06/09 01:03:39;;;;;;;17.98;13.13;;;;;;;;;;4407686;32;20232;-74
2021/06/09 01:06:05;;;;;;;15.27;13.13;;;;;;;;;;4424421;32;20130;-75
2021/06/09 01:08:36;;;;;;;15.82;12.48;;;;;;;;;;4434398;32;20188;-75
2021/06/09 01:11:02;;;;;;;17.62;13.05;;;;;;;;;;4407542;32;20162;-75
2021/06/09 01:13:29;;;;;;;14.48;12.35;;;;;;;;;;4422598;32;20172;-75
2021/06/09 01:15:54;;;;;;;17.55;14.60;;;;;;;;;;4409589;32;20282;-76
2021/06/09 01:18:19;;;;;;;21.02;14.93;;;;;;;;;;4429883;32;20170;-74
2021/06/09 01:20:45;;;;;;;18.25;14.55;;;;;;;;;;4408380;32;20219;-74
2021/06/09 01:23:10;;;;;;;18.15;12.88;;;;;;;;;;4429594;32;20200;-74
2021/06/09 01:25:36;;;;;;;16.77;14.25;;;;;;;;;;4436617;32;20141;-74
2021/06/09 01:28:02;;;;;;;17.42;13.93;;;;;;;;;;4437129;32;20134;-75
2021/06/09 01:30:28;;;;;;;21.25;16.00;;;;;;;;;;4436876;32;20129;-75
2021/06/09 01:32:53;;;;;;;21.95;17.55;;;;;;;;;;4421661;32;20180;-75
2021/06/09 01:35:20;;;;;;;18.73;15.18;;;;;;;;;;4422699;32;20175;-75
2021/06/09 01:37:45;;;;;;;17.60;14.32;;;;;;;;;;4434266;32;20161;-76
2021/06/09 01:40:15;;;;;;;23.90;17.62;;;;;;;;;;4437330;32;20522;-75
2021/06/09 01:42:41;;;;;;;19.02;14.40;;;;;;;;;;4421967;32;20606;-75
2021/06/09 01:45:07;;;;;;;17.40;13.00;;;;;;;;;;4436223;32;20197;-74
2021/06/09 01:47:32;;;;;;;17.58;14.07;;;;;;;;;;4425734;32;20149;-74
2021/06/09 01:49:57;;;;;;;16.23;13.05;;;;;;;;;;4422764;32;20222;-75
2021/06/09 01:52:22;;;;;;;21.42;14.40;;;;;;;;;;4420683;32;20142;-74
2021/06/09 01:54:47;;;;;;;21.83;17.42;;;;;;;;;;4420355;32;20536;-75
2021/06/09 01:57:14;;;;;;;25.55;20.33;;;;;;;;;;4406479;32;20180;-75
2021/06/09 01:59:40;;;;;;;22.65;17.65;;;;;;;;;;4406520;32;20466;-75
2021/06/09 02:02:05;;;;;;;20.70;16.87;;;;;;;;;;4422079;32;20216;-74
2021/06/09 02:04:31;;;;;;;22.87;19.15;;;;;;;;;;4408197;32;20583;-75
2021/06/09 02:06:56;;;;;;;25.75;19.83;;;;;;;;;;4425619;32;20142;-74
2021/06/09 02:09:22;;;;;;;22.60;18.55;;;;;;;;;;4436153;32;20175;-74
2021/06/09 02:11:48;;;;;;;21.92;16.95;;;;;;;;;;4429123;32;20183;-74
2021/06/09 02:14:15;;;;;;;21.45;16.52;;;;;;;;;;4421332;32;20177;-74
2021/06/09 02:16:42;;;;;;;22.35;16.50;;;;;;;;;;4407784;32;20677;-76
2021/06/09 02:19:07;;;;;;;21.00;15.38;;;;;;;;;;4432144;32;20142;-75
2021/06/09 02:21:33;;;;;;;18.70;15.77;;;;;;;;;;4418761;32;20244;-75
2021/06/09 02:23:58;;;;;;;21.30;16.02;;;;;;;;;;4406939;32;20234;-75
2021/06/09 02:26:24;;;;;;;25.83;19.65;;;;;;;;;;4404245;32;20253;-75
2021/06/09 02:28:49;;;;;;;20.12;16.02;;;;;;;;;;4403642;32;20193;-75
2021/06/09 02:31:15;;;;;;;19.58;15.70;;;;;;;;;;4412851;32;20172;-75
2021/06/09 02:33:40;;;;;;;19.10;15.70;;;;;;;;;;4420297;32;20189;-76
2021/06/09 02:36:06;;;;;;;20.42;15.32;;;;;;;;;;4421392;32;20169;-75
2021/06/09 02:38:34;;;;;;;23.10;18.20;;;;;;;;;;4423625;32;20265;-75
2021/06/09 02:40:59;;;;;;;21.75;17.40;;;;;;;;;;4424625;32;20141;-75
2021/06/09 02:43:31;;;;;;;24.08;17.77;;;;;;;;;;4423493;32;20591;-74
2021/06/09 02:46:00;;;;;;;24.23;18.23;;;;;;;;;;4424299;32;20175;-74
2021/06/09 02:48:29;;;;;;;29.30;22.75;;;;;;;;;;4410338;32;20158;-75
2021/06/09 02:50:54;;;;;;;28.87;22.23;;;;;;;;;;4406320;32;20192;-75
2021/06/09 02:53:19;;;;;;;25.40;19.73;;;;;;;;;;4409686;32;20142;-74
2021/06/09 02:56:03;;;;;;;27.13;20.42;;;;;;;;;;4408845;32;20541;-74
2021/06/09 02:58:47;;;;;;;28.27;22.17;;;;;;;;;;4406472;32;20280;-74
2021/06/09 03:01:19;;;;;;;30.60;21.73;;;;;;;;;;4408486;32;20191;-74
2021/06/09 03:03:50;;;;;;;29.33;21.92;;;;;;;;;;4408049;32;20213;-74
2021/06/09 03:06:21;;;;;;;29.58;21.58;;;;;;;;;;4423454;32;20134;-74
2021/06/09 03:08:58;;;;;;;30.30;22.20;;;;;;;;;;4422710;32;20532;-75
2021/06/09 03:11:32;;;;;;;28.48;21.20;;;;;;;;;;4423144;32;20146;-74
2021/06/09 03:14:04;;;;;;;35.88;24.23;;;;;;;;;;4406745;32;20158;-74
2021/06/09 03:16:41;;;;;;;28.27;22.48;;;;;;;;;;4409376;32;20119;-74
2021/06/09 03:19:10;;;;;;;29.70;22.30;;;;;;;;;;4420060;32;20172;-74
2021/06/09 03:21:50;;;;;;;27.67;22.35;;;;;;;;;;4431180;32;20562;-74
2021/06/09 03:24:20;;;;;;;32.97;24.23;;;;;;;;;;4426068;32;20142;-74
2021/06/09 03:26:51;;;;;;;27.90;22.13;;;;;;;;;;4410294;32;20162;-74
2021/06/09 03:29:28;;;;;;;27.95;22.10;;;;;;;;;;4408490;32;20158;-75
2021/06/09 03:31:57;;;;;;;30.60;22.27;;;;;;;;;;4411634;32;20578;-75
2021/06/09 03:34:43;;;;;;;32.70;24.67;;;;;;;;;;4438247;32;20176;-74
2021/06/09 03:37:09;;;;;;;34.70;25.45;;;;;;;;;;4415121;32;20161;-75
2021/06/09 03:39:35;;;;;;;28.98;22.52;;;;;;;;;;4408417;32;20166;-75
2021/06/09 03:42:00;;;;;;;33.65;25.83;;;;;;;;;;4422494;32;20189;-74
2021/06/09 03:44:31;;;;;;;33.47;26.08;;;;;;;;;;4423732;32;20164;-74
2021/06/09 03:46:57;;;;;;;29.83;22.67;;;;;;;;;;4426012;32;20508;-74
2021/06/09 03:49:23;;;;;;;32.40;24.20;;;;;;;;;;4428060;32;20164;-74
2021/06/09 03:51:49;;;;;;;30.73;23.05;;;;;;;;;;4422488;32;20165;-74
2021/06/09 03:54:14;;;;;;;38.08;27.02;;;;;;;;;;4422494;32;20129;-74
2021/06/09 03:56:41;;;;;;;33.33;23.67;;;;;;;;;;4421923;32;20231;-74
2021/06/09 03:59:07;;;;;;;32.92;24.90;;;;;;;;;;4409150;32;20162;-74
2021/06/09 04:01:35;;;;;;;33.83;26.33;;;;;;;;;;4434750;32;20222;-73
2021/06/09 04:04:01;;;;;;;29.45;22.98;;;;;;;;;;4435909;32;20134;-74
2021/06/09 04:06:27;;;;;;;30.10;22.83;;;;;;;;;;4423691;32;20285;-75
2021/06/09 04:08:53;;;;;;;32.10;25.30;;;;;;;;;;4409489;32;20162;-74
2021/06/09 04:11:19;;;;;;;32.50;24.48;;;;;;;;;;4429258;32;20663;-73
2021/06/09 04:13:46;;;;;;;33.30;24.75;;;;;;;;;;4438034;32;20182;-75
2021/06/09 04:16:11;;;;;;;35.33;26.12;;;;;;;;;;4437063;32;20168;-74
2021/06/09 04:18:39;;;;;;;35.33;26.33;;;;;;;;;;4417876;32;20162;-74
2021/06/09 04:21:04;;;;;;;31.73;23.83;;;;;;;;;;4407585;32;20456;-74
2021/06/09 04:23:30;;;;;;;30.10;23.38;;;;;;;;;;4419005;32;20241;-74
2021/06/09 04:25:57;;;;;;;32.60;25.98;;;;;;;;;;4423135;32;20232;-74
2021/06/09 04:28:23;;;;;;;38.30;25.83;;;;;;;;;;4408608;32;20188;-74
2021/06/09 04:30:50;;;;;;;33.58;24.48;;;;;;;;;;4422643;32;20165;-74
2021/06/09 04:33:16;;;;;;;36.97;27.15;;;;;;;;;;4426972;32;20153;-74
2021/06/09 04:35:44;;;;;;;36.47;25.30;;;;;;;;;;4437726;32;20458;-74
2021/06/09 04:38:16;;;;;;;35.50;25.12;;;;;;;;;;4422617;32;20571;-74
2021/06/09 04:40:42;;;;;;;36.55;27.70;;;;;;;;;;4422997;32;20552;-74
2021/06/09 04:43:07;;;;;;;37.78;28.80;;;;;;;;;;4436715;32;20197;-75
2021/06/09 04:45:32;;;;;;;36.72;26.70;;;;;;;;;;4422918;32;20161;-75
2021/06/09 04:47:58;;;;;;;33.80;25.77;;;;;;;;;;4428089;32;20199;-73
2021/06/09 04:50:25;;;;;;;36.55;25.35;;;;;;;;;;4420881;32;20152;-74
2021/06/09 04:52:50;;;;;;;34.72;24.83;;;;;;;;;;4422505;32;20230;-75
2021/06/09 04:55:16;;;;;;;36.08;26.48;;;;;;;;;;4421312;32;20130;-75
2021/06/09 04:57:42;;;;;;;35.58;26.58;;;;;;;;;;4406551;32;20647;-73
2021/06/09 05:00:09;;;;;;;32.40;24.70;;;;;;;;;;4422556;32;20514;-74
2021/06/09 05:02:34;;;;;;;39.40;27.75;;;;;;;;;;4430160;32;20176;-75
2021/06/09 05:05:00;;;;;;;35.33;27.02;;;;;;;;;;4422199;32;20237;-75
2021/06/09 05:07:25;;;;;;;37.38;28.73;;;;;;;;;;4437633;32;20168;-75
2021/06/09 05:09:50;;;;;;;42.85;31.10;;;;;;;;;;4432077;32;20165;-75
2021/06/09 05:12:20;;;;;;;41.70;29.60;;;;;;;;;;4437755;32;20172;-75
2021/06/09 05:14:58;;;;;;;35.30;27.73;;;;;;;;;;4424217;32;20142;-74
2021/06/09 05:17:26;;;;;;;35.15;26.10;;;;;;;;;;4422270;32;20164;-74
2021/06/09 05:19:52;;;;;;;43.90;31.65;;;;;;;;;;4436023;32;20136;-74
2021/06/09 05:22:22;;;;;;;38.95;27.60;;;;;;;;;;4429826;32;20540;-74
2021/06/09 05:24:48;;;;;;;41.83;29.10;;;;;;;;;;4420465;32;20226;-75
2021/06/09 05:27:15;;;;;;;37.45;27.45;;;;;;;;;;4407658;32;20166;-75
2021/06/09 05:29:41;;;;;;;40.05;29.00;;;;;;;;;;4421075;32;20149;-75
2021/06/09 05:32:07;;;;;;;36.30;26.30;;;;;;;;;;4437093;32;20157;-74
2021/06/09 05:34:34;;;;;;;38.22;28.73;;;;;;;;;;4436115;32;20162;-74
2021/06/09 05:37:00;;;;;;;40.60;27.92;;;;;;;;;;4416999;32;20169;-74
2021/06/09 05:39:25;;;;;;;36.60;26.30;;;;;;;;;;4421199;32;20152;-74
2021/06/09 05:41:50;;;;;;;34.13;24.95;;;;;;;;;;4420015;32;20189;-73
2021/06/09 05:44:16;;;;;;;33.90;25.20;;;;;;;;;;4425402;32;20160;-73
2021/06/09 05:46:43;;;;;;;39.40;27.05;;;;;;;;;;4420749;32;20235;-75
2021/06/09 05:49:08;;;;;;;45.60;27.60;;;;;;;;;;4426653;32;20210;-74
2021/06/09 05:51:33;;;;;;;58.40;30.12;;;;;;;;;;4406181;32;20178;-73
2021/06/09 05:53:59;;;;;;;40.00;27.35;;;;;;;;;;4407138;32;20211;-74
2021/06/09 05:56:24;;;;;;;43.03;27.10;;;;;;;;;;4420243;32;20147;-75
2021/06/09 05:58:50;;;;;;;43.00;27.98;;;;;;;;;;4420439;32;20149;-74
2021/06/09 06:01:15;;;;;;;43.10;25.95;;;;;;;;;;4428892;32;20168;-73
2021/06/09 06:03:41;;;;;;;37.65;26.35;;;;;;;;;;4423574;32;20634;-75
2021/06/09 06:06:08;;;;;;;32.35;24.60;;;;;;;;;;4429379;32;20146;-74
2021/06/09 06:08:35;;;;;;;33.47;23.23;;;;;;;;;;4409325;32;20649;-74
2021/06/09 06:11:01;;;;;;;35.67;27.17;;;;;;;;;;4405771;32;20165;-74
2021/06/09 06:13:26;;;;;;;33.28;24.83;;;;;;;;;;4420404;32;20160;-75
2021/06/09 06:15:55;;;;;;;36.10;25.77;;;;;;;;;;4419854;32;20138;-75
2021/06/09 06:18:39;;;;;;;33.97;25.90;;;;;;;;;;4420828;32;20167;-75
2021/06/09 06:21:05;;;;;;;38.60;25.48;;;;;;;;;;4407154;32;20218;-75
2021/06/09 06:23:31;;;;;;;38.33;27.87;;;;;;;;;;4419495;32;20075;-75
2021/06/09 06:25:56;;;;;;;43.40;30.10;;;;;;;;;;4414083;32;20172;-75
2021/06/09 06:28:22;;;;;;;35.97;25.67;;;;;;;;;;4434769;32;20157;-74
2021/06/09 06:30:48;;;;;;;36.53;25.35;;;;;;;;;;4435542;32;20129;-74
2021/06/09 06:33:14;;;;;;;42.33;27.02;;;;;;;;;;4420812;32;20157;-74
2021/06/09 06:35:40;;;;;;;37.22;26.10;;;;;;;;;;4420839;32;20165;-74
2021/06/09 06:38:06;;;;;;;34.95;25.48;;;;;;;;;;4435316;32;20534;-75
2021/06/09 06:40:32;;;;;;;33.90;25.90;;;;;;;;;;4435278;32;20165;-75
2021/06/09 06:42:58;;;;;;;40.60;25.52;;;;;;;;;;4437441;32;20201;-77
2021/06/09 06:45:23;;;;;;;39.17;25.52;;;;;;;;;;4423067;32;20456;-76
2021/06/09 06:47:49;;;;;;;37.45;26.23;;;;;;;;;;4435386;32;20167;-76
2021/06/09 06:50:17;;;;;;;35.47;25.27;;;;;;;;;;4416696;32;20618;-76
2021/06/09 06:52:44;;;;;;;34.08;24.05;;;;;;;;;;4417583;32;20546;-76
2021/06/09 06:55:09;;;;;;;29.75;23.48;;;;;;;;;;4419877;32;20157;-76
2021/06/09 06:57:35;;;;;;;35.20;26.77;;;;;;;;;;4423691;32;20286;-76
2021/06/09 07:00:01;;;;;;;34.55;25.90;;;;;;;;;;4423856;32;20184;-74
2021/06/09 07:02:27;;;;;;;37.70;26.08;;;;;;;;;;4425171;32;20161;-74
2021/06/09 07:04:52;;;;;;;32.88;22.90;;;;;;;;;;4435045;32;20176;-74
2021/06/09 07:07:18;;;;;;;33.00;23.60;;;;;;;;;;4420844;32;20165;-74
2021/06/09 07:09:44;;;;;;;39.88;26.62;;;;;;;;;;4421620;32;20249;-74
2021/06/09 07:12:09;;;;;;;32.45;24.55;;;;;;;;;;4419543;32;20212;-74
2021/06/09 07:14:34;;;;;;;35.15;26.62;;;;;;;;;;4434768;32;20171;-75
2021/06/09 07:17:00;;;;;;;33.92;23.73;;;;;;;;;;4435633;32;20186;-74
2021/06/09 07:19:25;;;;;;;34.40;24.90;;;;;;;;;;4434875;32;20142;-74
2021/06/09 07:21:50;;;;;;;38.20;27.92;;;;;;;;;;4436516;32;20577;-75
2021/06/09 07:24:16;;;;;;;32.47;25.17;;;;;;;;;;4438047;32;20486;-75
2021/06/09 07:26:43;;;;;;;35.45;27.85;;;;;;;;;;4438726;32;20268;-74
2021/06/09 07:29:09;;;;;;;35.33;27.37;;;;;;;;;;4432149;32;20197;-75
2021/06/09 07:31:36;;;;;;;38.05;26.55;;;;;;;;;;4423132;32;20558;-74
2021/06/09 07:34:03;;;;;;;46.37;30.90;;;;;;;;;;4423870;32;20215;-73
2021/06/09 07:36:36;;;;;;;36.40;26.27;;;;;;;;;;4423361;32;20154;-74
2021/06/09 07:39:05;;;;;;;36.17;28.05;;;;;;;;;;4437020;32;20162;-74
2021/06/09 07:41:32;;;;;;;35.95;24.12;;;;;;;;;;4429125;32;20142;-78
2021/06/09 07:43:58;;;;;;;33.67;23.42;;;;;;;;;;4422180;32;20134;-75
2021/06/09 07:46:27;;;;;;;32.42;24.70;;;;;;;;;;4422365;32;20157;-75
2021/06/09 07:48:52;;;;;;;29.37;20.83;;;;;;;;;;4413547;32;20224;-76
2021/06/09 07:51:17;;;;;;;34.67;23.25;;;;;;;;;;4436923;32;20150;-76
2021/06/09 07:53:51;;;;;;;31.52;21.90;;;;;;;;;;4436181;32;20130;-76
2021/06/09 07:56:17;;;;;;;28.42;18.67;;;;;;;;;;4423738;32;20203;-76
2021/06/09 07:58:43;;;;;;;24.25;16.95;;;;;;;;;;4408782;32;20574;-76
2021/06/09 08:01:08;;;;;;;22.73;15.65;;;;;;;;;;4423389;32;20134;-76
2021/06/09 08:03:36;;;;;;;24.12;15.70;;;;;;;;;;4422180;32;20197;-76
2021/06/09 08:06:02;;;;;;;24.10;15.63;;;;;;;;;;4408681;32;20208;-76
2021/06/09 08:08:28;;;;;;;23.15;17.17;;;;;;;;;;4409536;32;20158;-75
2021/06/09 08:10:53;;;;;;;19.48;13.43;;;;;;;;;;4423269;32;20559;-77
2021/06/09 08:13:19;;;;;;;17.33;11.97;;;;;;;;;;4422384;32;20130;-77
2021/06/09 08:15:44;;;;;;;30.15;13.32;;;;;;;;;;4421753;32;20254;-77
2021/06/09 08:18:12;;;;;;;33.72;15.07;;;;;;;;;;4421753;32;20187;-77
2021/06/09 08:20:48;;;;;;;17.62;12.05;;;;;;;;;;4407505;32;20173;-75
2021/06/09 08:23:13;;;;;;;36.58;15.98;;;;;;;;;;4422699;32;20156;-76
2021/06/09 08:25:38;;;;;;;24.37;13.85;;;;;;;;;;4422367;32;20130;-76
2021/06/09 08:28:03;;;;;;;19.10;12.00;;;;;;;;;;4421410;32;20172;-76
2021/06/09 08:30:28;;;;;;;22.33;13.23;;;;;;;;;;4407598;32;20269;-77
2021/06/09 08:32:54;;;;;;;21.50;12.47;;;;;;;;;;4407983;32;20506;-75
2021/06/09 08:35:19;;;;;;;14.63;11.07;;;;;;;;;;4406859;32;20275;-76
2021/06/09 08:37:44;;;;;;;20.77;13.25;;;;;;;;;;4421895;32;20130;-76
2021/06/09 08:40:10;;;;;;;21.02;13.82;;;;;;;;;;4421148;32;20157;-77
2021/06/09 08:42:37;;;;;;;20.90;12.75;;;;;;;;;;4420958;32;20169;-76
2021/06/09 08:45:04;;;;;;;17.98;9.88;;;;;;;;;;4407208;32;20180;-76
2021/06/09 08:47:29;;;;;;;16.92;10.52;;;;;;;;;;4421582;32;20142;-76
2021/06/09 08:49:55;;;;;;;22.20;12.48;;;;;;;;;;4420938;32;20130;-76
2021/06/09 08:52:21;;;;;;;16.10;12.00;;;;;;;;;;4421112;32;20184;-76
2021/06/09 08:54:47;;;;;;;21.98;12.20;;;;;;;;;;4420522;32;20160;-76
2021/06/09 08:57:13;;;;;;;20.17;12.32;;;;;;;;;;4407037;32;20166;-76
2021/06/09 08:59:40;;;;;;;22.80;12.37;;;;;;;;;;4418007;32;20257;-76
2021/06/09 09:02:05;;;;;;;28.00;10.98;;;;;;;;;;4436500;32;20172;-76
2021/06/09 09:04:31;;;;;;;19.37;12.93;;;;;;;;;;4424958;32;20173;-76
2021/06/09 09:06:56;;;;;;;22.13;14.18;;;;;;;;;;4420534;32;20134;-75
2021/06/09 09:09:22;;;;;;;19.40;12.70;;;;;;;;;;4420461;32;20196;-76
2021/06/09 09:11:47;;;;;;;12.90;8.50;;;;;;;;;;4422464;32;20332;-76
2021/06/09 09:14:14;;;;;;;13.77;9.27;;;;;;;;;;4420568;32;20126;-76
2021/06/09 09:16:59;;;;;;;16.00;9.80;;;;;;;;;;4421522;32;20259;-76
2021/06/09 09:19:29;;;;;;;13.70;8.93;;;;;;;;;;4420304;32;20130;-75
2021/06/09 09:21:54;;;;;;;13.48;9.18;;;;;;;;;;4419621;32;20602;-76
2021/06/09 09:24:35;;;;;;;12.77;8.10;;;;;;;;;;4421464;32;20230;-76
2021/06/09 09:27:01;;;;;;;11.77;8.95;;;;;;;;;;4419668;32;20235;-76
2021/06/09 09:29:26;;;;;;;18.00;11.40;;;;;;;;;;4430444;32;20876;-76
2021/06/09 09:31:56;;;;;;;16.17;10.20;;;;;;;;;;4433368;32;20154;-76
2021/06/09 09:34:31;;;;;;;14.52;10.40;;;;;;;;;;4434132;32;20233;-76
2021/06/09 09:37:14;;;;;;;16.62;11.32;;;;;;;;;;4440528;32;20182;-76
2021/06/09 09:39:41;;;;;;;12.75;10.77;;;;;;;;;;4445881;32;20171;-75
2021/06/09 09:42:19;;;;;;;32.15;10.02;;;;;;;;;;4419059;32;20150;-76
2021/06/09 09:44:44;;;;;;;11.70;7.50;;;;;;;;;;4418374;32;20141;-76
2021/06/09 09:47:17;;;;;;;14.52;10.20;;;;;;;;;;4423639;32;20149;-75
2021/06/09 09:49:42;;;;;;;12.30;9.25;;;;;;;;;;4423002;32;20201;-76
2021/06/09 09:52:08;;;;;;;9.77;8.57;;;;;;;;;;4413834;32;20228;-76
2021/06/09 09:54:34;;;;;;;12.30;8.13;;;;;;;;;;4432380;32;20612;-76
2021/06/09 09:57:00;;;;;;;14.57;8.57;;;;;;;;;;4434355;32;20792;-76
2021/06/09 09:59:27;;;;;;;13.73;7.47;;;;;;;;;;4433528;32;20161;-76
2021/06/09 10:01:53;;;;;;;8.65;6.70;;;;;;;;;;4432754;32;20169;-76
2021/06/09 10:04:28;;;;;;;9.38;6.50;;;;;;;;;;4419049;32;20188;-76
2021/06/09 10:06:54;;;;;;;13.65;9.68;;;;;;;;;;4434458;32;20298;-75
2021/06/09 10:09:26;;;;;;;13.20;9.77;;;;;;;;;;4419020;32;20165;-75
2021/06/09 10:11:55;;;;;;;12.93;10.43;;;;;;;;;;4432412;32;20177;-76
2021/06/09 10:14:25;;;;;;;13.88;9.20;;;;;;;;;;4432913;32;20141;-76
2021/06/09 10:16:56;;;;;;;9.20;7.90;;;;;;;;;;4421326;32;20203;-76
2021/06/09 10:19:21;;;;;;;14.25;8.80;;;;;;;;;;4420543;32;20229;-76
2021/06/09 10:21:57;;;;;;;12.65;9.38;;;;;;;;;;4433348;32;20219;-77
2021/06/09 10:24:24;;;;;;;13.95;9.13;;;;;;;;;;4432879;32;20906;-76
2021/06/09 10:26:58;;;;;;;10.98;8.50;;;;;;;;;;4420152;32;20211;-76
2021/06/09 10:29:24;;;;;;;10.52;8.25;;;;;;;;;;4434144;32;20142;-76
2021/06/09 10:32:00;;;;;;;12.70;10.57;;;;;;;;;;4432912;32;20149;-76
2021/06/09 10:34:28;;;;;;;12.70;9.52;;;;;;;;;;4418437;32;20172;-75
2021/06/09 10:36:55;;;;;;;10.48;8.98;;;;;;;;;;4433993;32;20570;-75
2021/06/09 10:39:21;;;;;;;12.95;9.18;;;;;;;;;;4433297;32;20157;-76
2021/06/09 10:41:49;;;;;;;13.10;10.30;;;;;;;;;;4433633;32;20153;-75
2021/06/09 10:44:19;;;;;;;10.68;7.15;;;;;;;;;;4431651;32;20219;-76
2021/06/09 10:46:48;;;;;;;10.85;7.62;;;;;;;;;;4418736;32;20745;-76
2021/06/09 10:49:15;;;;;;;11.25;8.55;;;;;;;;;;4418921;32;20184;-76
2021/06/09 10:51:41;;;;;;;13.02;8.88;;;;;;;;;;4419049;32;20207;-76
2021/06/09 10:54:10;;;;;;;10.10;6.80;;;;;;;;;;4420941;32;20201;-76
2021/06/09 10:56:37;;;;;;;11.70;6.60;;;;;;;;;;4419473;32;20158;-75
2021/06/09 10:59:02;;;;;;;7.50;5.97;;;;;;;;;;4420190;32;20127;-75
2021/06/09 11:01:28;;;;;;;7.72;6.40;;;;;;;;;;4419920;32;20165;-76
2021/06/09 11:03:54;;;;;;;9.75;5.43;;;;;;;;;;4419486;32;20237;-75
2021/06/09 11:06:33;;;;;;;6.95;4.85;;;;;;;;;;4406013;32;20158;-74
2021/06/09 11:09:10;;;;;;;12.18;8.40;;;;;;;;;;4421091;32;20141;-76
2021/06/09 11:11:35;;;;;;;7.80;6.62;;;;;;;;;;4421696;32;20314;-76
2021/06/09 11:14:17;;;;;;;10.63;6.78;;;;;;;;;;4436614;32;20172;-75
2021/06/09 11:16:52;;;;;;;13.80;6.32;;;;;;;;;;4436875;32;20184;-74
2021/06/09 11:19:33;;;;;;;12.88;9.80;;;;;;;;;;4421553;32;20203;-75
2021/06/09 11:22:15;;;;;;;17.50;13.10;;;;;;;;;;4436193;32;20617;-77
2021/06/09 11:24:40;;;;;;;17.10;13.45;;;;;;;;;;4438146;32;20130;-79
2021/06/09 11:27:29;;;;;;;15.75;11.98;;;;;;;;;;4437965;32;20160;-79
2021/06/09 11:29:54;;;;;;;16.85;12.23;;;;;;;;;;4413060;32;20250;-79
2021/06/09 11:32:21;;;;;;;18.00;14.85;;;;;;;;;;4432310;32;20207;-78
2021/06/09 11:34:59;;;;;;;10.18;8.57;;;;;;;;;;4433169;32;20219;-78
2021/06/09 11:37:25;;;;;;;18.92;15.95;;;;;;;;;;4423856;32;20214;-78
2021/06/09 11:40:00;;;;;;;28.73;18.40;;;;;;;;;;4422210;32;20177;-77
2021/06/09 11:42:25;;;;;;;24.58;20.20;;;;;;;;;;4421755;32;20177;-78
2021/06/09 11:44:52;;;;;;;21.42;17.87;;;;;;;;;;4422153;32;20292;-79
2021/06/09 11:47:19;;;;;;;18.70;15.93;;;;;;;;;;4435354;32;20164;-78
2021/06/09 11:49:45;;;;;;;19.92;16.50;;;;;;;;;;4437244;32;20134;-78
2021/06/09 11:52:10;;;;;;;20.50;16.65;;;;;;;;;;4436749;32;20154;-79
2021/06/09 11:54:37;;;;;;;23.27;19.50;;;;;;;;;;4438687;32;20137;-79
2021/06/09 11:57:05;;;;;;;17.90;14.23;;;;;;;;;;4436521;32;20337;-79
2021/06/09 11:59:32;;;;;;;29.77;19.70;;;;;;;;;;4436434;32;20202;-78
2021/06/09 12:02:02;;;;;;;21.02;17.52;;;;;;;;;;4414899;32;20205;-79
2021/06/09 12:04:30;;;;;;;20.65;15.38;;;;;;;;;;4422037;32;20153;-75
2021/06/09 12:07:06;;;;;;;17.37;13.48;;;;;;;;;;4434333;32;20185;-77
2021/06/09 12:09:33;;;;;;;17.05;13.00;;;;;;;;;;4435972;32;20157;-77
2021/06/09 12:12:00;;;;;;;16.50;14.52;;;;;;;;;;4420406;32;20170;-76
2021/06/09 12:14:25;;;;;;;13.70;12.15;;;;;;;;;;4420744;32;20610;-77
2021/06/09 12:16:53;;;;;;;14.97;8.00;;;;;;;;;;4435058;32;20164;-77
2021/06/09 12:19:22;;;;;;;11.55;8.48;;;;;;;;;;4436394;32;20567;-77
2021/06/09 12:21:48;;;;;;;10.13;7.57;;;;;;;;;;4433962;32;20249;-77
2021/06/09 12:24:14;;;;;;;9.23;6.03;;;;;;;;;;4434792;32;20209;-78
2021/06/09 12:26:48;;;;;;;7.12;5.75;;;;;;;;;;4437130;32;20559;-77
2021/06/09 12:29:13;;;;;;;6.90;5.20;;;;;;;;;;4436607;32;20167;-77
2021/06/09 12:31:38;;;;;;;7.50;4.30;;;;;;;;;;4432944;32;20176;-78
2021/06/09 12:34:06;;;;;;;5.90;3.93;;;;;;;;;;4430806;32;20195;-78
2021/06/09 12:36:32;;;;;;;6.85;4.07;;;;;;;;;;4434289;32;20329;-78
2021/06/09 12:38:57;;;;;;;6.05;3.40;;;;;;;;;;4431430;32;20190;-77
2021/06/09 12:41:28;;;;;;;3.92;2.67;;;;;;;;;;4424777;32;21567;-78
2021/06/09 12:43:54;;;;;;;9.73;7.40;;;;;;;;;;4435901;32;20173;-77
2021/06/09 12:46:19;;;;;;;5.15;2.67;;;;;;;;;;4431625;32;20133;-78
2021/06/09 12:48:47;;;;;;;4.18;2.12;;;;;;;;;;4436212;32;20183;-75
2021/06/09 12:51:12;;;;;;;3.05;2.10;;;;;;;;;;4429914;32;20227;-76
2021/06/09 12:53:37;;;;;;;7.30;2.27;;;;;;;;;;4420618;32;20174;-76
2021/06/09 12:56:06;;;;;;;4.27;1.90;;;;;;;;;;4433869;32;20570;-75
2021/06/09 12:58:33;;;;;;;3.20;1.98;;;;;;;;;;4420907;32;20295;-74
2021/06/09 13:00:59;;;;;;;2.37;1.62;;;;;;;;;;4434040;32;20186;-76
2021/06/09 13:03:24;;;;;;;5.40;2.03;;;;;;;;;;4419455;32;20165;-75
2021/06/09 13:05:58;;;;;;;3.13;1.70;;;;;;;;;;4433651;32;20167;-75
2021/06/09 13:08:25;;;;;;;3.62;1.58;;;;;;;;;;4435586;32;20258;-76
2021/06/09 13:10:51;;;;;;;2.72;1.90;;;;;;;;;;4423975;32;20158;-75
2021/06/09 13:13:18;;;;;;;2.53;1.62;;;;;;;;;;4447190;32;20165;-76
2021/06/09 13:15:50;;;;;;;2.97;2.00;;;;;;;;;;4449249;32;20145;-74
2021/06/09 13:18:31;;;;;;;3.22;1.50;;;;;;;;;;4435800;32;20226;-75
2021/06/09 13:21:07;;;;;;;1.50;1.20;;;;;;;;;;4435068;32;20137;-76
2021/06/09 13:23:32;;;;;;;3.35;1.42;;;;;;;;;;4435549;32;20154;-75
2021/06/09 13:26:04;;;;;;;1.62;0.90;;;;;;;;;;4433306;32;20704;-75
2021/06/09 13:28:32;;;;;;;2.60;0.90;;;;;;;;;;4433034;32;20266;-75
2021/06/09 13:30:57;;;;;;;4.03;1.10;;;;;;;;;;4432575;32;20862;-74
2021/06/09 13:33:22;;;;;;;2.15;1.02;;;;;;;;;;4433542;32;20142;-75
2021/06/09 13:35:47;;;;;;;5.67;1.43;;;;;;;;;;4419475;32;20189;-76
2021/06/09 13:38:13;;;;;;;3.00;0.90;;;;;;;;;;4433974;32;20233;-75
2021/06/09 13:40:38;;;;;;;3.65;0.80;;;;;;;;;;4434155;32;20233;-76
2021/06/09 13:43:11;;;;;;;1.10;0.70;;;;;;;;;;4434354;32;20234;-74
2021/06/09 13:45:44;;;;;;;1.98;0.62;;;;;;;;;;4421945;32;20181;-75
2021/06/09 13:48:11;;;;;;;1.10;0.65;;;;;;;;;;4428138;32;20133;-75
2021/06/09 13:50:37;;;;;;;2.67;0.90;;;;;;;;;;4449881;32;20145;-74
2021/06/09 13:53:10;;;;;;;1.42;0.52;;;;;;;;;;4448156;32;20149;-76
2021/06/09 13:55:43;;;;;;;1.33;0.70;;;;;;;;;;4447854;32;20137;-75
2021/06/09 13:58:37;;;;;;;2.05;0.80;;;;;;;;;;4434192;32;20196;-76
2021/06/09 14:01:13;;;;;;;1.52;0.70;;;;;;;;;;4409937;32;20173;-75
2021/06/09 14:03:38;;;;;;;2.28;0.68;;;;;;;;;;4447825;32;20236;-75
2021/06/09 14:06:22;;;;;;;1.63;0.70;;;;;;;;;;4447728;32;20163;-75
2021/06/09 14:08:47;;;;;;;1.70;0.60;;;;;;;;;;4432932;32;20294;-76
2021/06/09 14:11:12;;;;;;;2.47;0.90;;;;;;;;;;4448929;32;20144;-75
2021/06/09 14:13:37;;;;;;;1.52;0.82;;;;;;;;;;4448687;32;20208;-76
2021/06/09 14:16:06;;;;;;;1.90;0.90;;;;;;;;;;4447144;32;20142;-75
2021/06/09 14:18:32;;;;;;;4.00;1.08;;;;;;;;;;4434420;32;20244;-76
2021/06/09 14:20:59;;;;;;;3.85;0.70;;;;;;;;;;4449736;32;20142;-75
2021/06/09 14:23:29;;;;;;;3.40;0.88;;;;;;;;;;4448326;32;20149;-75
2021/06/09 14:25:56;;;;;;;4.12;0.47;;;;;;;;;;4448804;32;20160;-75